Latest Observation

67 Stations

Daily Data
as of 5/10/26 12:02 PM PDT
Station Date Daily Max Temp (°F) Daily Min Temp (°F) Daily Max RH (%) Daily Min RH (%) Wind Spd (mph) Wind Dir (°) Daily Max Wind (mph) Max Wind Dir (°) Time of Max Wind Daily Rain (In) Weekly Precip (In) Season Precip (In) Soil Moist (%) Fuel Temp (°F) Fuel Moisture (%) MinBV Day (V)
Hobart Mills 12/23/25 51.8   11.3 33.9   2.1 88   12 42   34 2.1   1.7 SW | 224 18.4   8.6 WSW | 240 2307 0.65 6.21 15.12 - 37.6   2.8 42   19 8.0   0.7
Prosser Dam 5/9/26 74.8   3.0 35.9   7.2 98   1 17   1 2.4   0.8 NW | 316 16.2   6.1 NW | 316 1539 0.00 0.73 8.47 21.7   1.1 60.3   4.2 9   0 12.6   0.0
West Incline Village 5/9/26 69.0   4.1 44.6   2.1 75   15 18   2 3.0   0.0 ENE | 62 16.5   1.7 S | 181 1236 0.00 1.24 7.94 32.3   0.6 62.1   3.6 6   0 12.5   0.0
Incline Village (Fairview Blvd) 5/9/26 72.4   5.8 46.7   2.2 75   16 16   4 1.6   0.3 NE | 52 13.4   2.0 SSE | 149 1422 0.00 1.19 7.48 25.9   0.3 63.8   4.4 7   1 12.6   0.0
Incline Village (Diamond Peak) 5/9/26 65.7   2.5 49.7   4.6 59   1 16   5 5.6   4.8 E | 80 19.0   11.5 ENE | 68 0959 0.00 0.10 0.51 9.2   0.1 -11.4   0.0 - 12.4   0.0
Incline Village (Mill Creek) 5/9/26 72.3   5.3 45.4   4.4 92   19 15   3 1.6   0.5 NE | 51 15.6   0.1 N | 4 1047 0.00 1.22 7.18 10.9   0.2 - - 12.4   0.0
Incline Village (Lakeshore Blvd) 5/9/26 68.6   4.3 39.5   5.4 86   4 24   4 1.5   0.2 ENE | 62 13.7   8.2 NE | 56 1035 0.00 1.07 7.20 30.7   0.7 64.3   2.1 13   0 12.3   0.0
Glenbrook 5/9/26 70.3   3.8 40.7   3.2 90   2 19   1 2.2   0.5 SW | 222 17.4   11.7 W | 263 1003 0.00 1.09 5.88 44.3   0.0 55.5   1.6 11   1 12.5   0.0
Zephyr Cove 5/9/26 68.3   0.1 44.5   4.8 79   0 22   4 0.0   0.0 N | 0 7.1   0.2 SSW | 202 1059 0.00 0.02 0.68 - 48.4   1.6 - 12.6   0.0
Kingsbury Grade 5/9/26 69.9   0.7 42.9   6.4 75   12 15   3 3.3   2.0 E | 91 19.1   5.5 SE | 140 1051 0.00 0.95 5.82 6.8   0.2 59.4   4.0 6   2 12.5   0.0
South Daggett Pass (Ridge) 5/9/26 65.9   3.3 49.3   8.2 57   18 16   4 4.1   1.6 SE | 128 15.6   1.2 ENE | 73 1132 0.00 0.73 4.05 6.7   0.0 59.5   5.2 7   2 12.5   0.0
Palomino Valley 5/9/26 81.7   1.9 41.4   0.2 71   2 12   3 3.5   1.1 NW | 323 20.2   4.1 NNW | 344 1515 0.00 0.27 1.41 7.1   0.1 66.2   0.5 0   0 12.6   0.0
East Cold Springs 5/9/26 77.2   3.0 50.5   5.4 60   2 13   4 4.7   3.6 NNW | 330 27.0   4.3 ESE | 109 1517 0.00 0.61 2.09 1.8   0.0 65.0   0.1 8   0 12.7   0.0
Peavine 5/9/26 74.5   3.8 46.0   0.7 55   2 13   6 3.9   0.9 S | 189 16.2   7.9 ESE | 118 1156 0.00 0.65 2.14 - - - 12.5   0.0
West Verdi Peak 5/9/26 74.1   2.6 48.4   4.7 66   1 14   2 2.3   0.9 NE | 39 16.0   3.6 ESE | 107 1255 0.00 0.75 6.39 19.0   1.3 63.1   0.1 7   0 12.6   0.0
West Verdi 5/9/26 78.3   2.2 45.4   2.8 73   12 12   2 2.9   0.9 NNE | 19 14.5   5.7 ENE | 78 1311 0.00 0.65 5.92 7.9   0.1 67.9   3.8 9   0 12.6   0.0
South Verdi 5/9/26 76.0   2.1 51.7   11.1 58   10 13   0 7.7   3.9 WSW | 248 28.8   1.7 WSW | 248 1335 0.00 0.53 4.81 16.2   0.2 66.4   2.0 7   0 12.7   0.0
Northwest Reno 5/9/26 79.2   2.3 54.3   5.5 60   15 11   1 5.9   2.8 NE | 50 34.4   6.4 E | 95 1343 0.00 0.29 1.33 24.1   0.1 -17.7   0.1 - 12.5   0.1
North Lawton 5/9/26 78.9   1.9 48.0   0.8 66   14 12   1 5.4   2.0 NNW | 333 17.9   4.1 NNE | 30 1321 0.00 0.41 2.14 - - - 12.5   0.0
West Reno (Mogul) 5/9/26 78.0   0.8 48.5   1.1 68   16 11   2 5.4   0.7 ENE | 68 21.0   3.7 NE | 52 1235 0.00 0.32 4.24 36.4   0.6 68.8   0.2 2   0 12.5   0.0
Caughlin (Hunter Lake Trail) 9/15/25 78.6   1.3 52.5   3.7 58   7 23   2 4.2   2.5 S | 173 13.0   20.5 NNE | 31 1309 0.00 0.32 8.05 15.7   0.1 67.4   0.5 7   1 12.7   0.0
ArrowCreek 5/9/26 78.6   1.6 50.4   4.4 59   8 11   2 4.3   1.0 S | 184 15.3   10.7 NE | 45 1201 0.00 0.68 5.25 - - - 12.4   0.0
Tracy 5/9/26 82.5   1.3 52.2   0.7 61   18 10   0 3.9   4.1 ENE | 74 20.5   3.5 E | 90 1446 0.00 0.37 1.23 8.1   0.0 71.1   0.8 6   0 12.7   0.0
Virginia Highlands 5/9/26 74.4   1.6 53.6   4.2 52   3 12   3 4.2   0.4 ESE | 121 16.3   3.4 SE | 131 1219 0.00 0.41 2.15 8.1   0.2 67.5   2.4 6   0 12.6   0.0
Virginia City 5/9/26 73.3   2.2 53.6   0.4 44   4 13   2 4.3   4.9 N | 7 27.1   2.4 NNW | 340 0109 0.00 0.41 1.86 8.4   0.0 65.5   0.1 4   0 12.6   0.0
Six Mile Canyon 9/8/25 98.8   16.5 50.2   7.6 44   3 11   1 7.2   0.3 WSW | 252 27.0   4.6 SSE | 159 1325 0.00 0.00 0.89 12.6   0.1 69.7   3.0 4   0 12.4   0.2
Mt Rose Highway 4/29/26 56.6   7.9 35.6   4.1 63   16 31   6 2.2   0.0 NW | 305 10.8   4.2 NE | 35 1152 0.00 0.08 4.93 24.3   0.3 47.6   8.0 3   0 12.4   0.0
Pleasant Valley 5/9/26 81.7   4.8 47.6   6.6 67   10 12   4 2.5   1.4 SSW | 211 13.2   6.5 SSW | 201 1338 0.00 0.44 2.52 2.9   0.0 70.5   2.7 7   0 12.6   0.0
New Washoe City 5/9/26 78.1   2.6 47.9   3.6 61   9 11   3 3.5   1.5 N | 352 14.2   6.7 W | 263 1444 0.00 0.44 1.76 4.5   0.0 67.6   2.7 7   0 12.6   0.0
Franktown Creek 5/9/26 79.2   3.5 45.4   2.2 72   15 13   2 1.1   0.9 NW | 316 9.2   9.3 NNE | 25 1226 0.00 0.62 5.97 11.2   0.0 61.7   1.4 8   0 12.6   0.0
Musgrove Creek 5/9/26 75.3   2.6 52.2   0.4 59   12 14   1 1.6   1.3 W | 261 11.6   3.6 NE | 43 1239 0.00 0.92 8.00 41.0   2.4 65.0   0.0 11   3 12.5   0.0
East Carson 11/22/24 63.8   0.3 41.7   4.6 85   21 21   9 14.9   6.0 SW | 224 46.6   12.7 S | 171 1835 0.05 0.05 4.48 2.5   0.0 53.9   0.3 9   0 12.6   0.0
Kings Canyon 5/9/26 77.4   3.1 47.3   3.9 64   10 16   4 3.5   1.2 S | 178 12.5   6.3 NNW | 330 1555 0.00 0.64 4.52 14.3   0.4 69.4   2.6 4   0 12.6   0.0
Carson City (Voltaire Canyon) 5/9/26 78.4   2.8 53.8   1.8 60   3 13   2 4.1   4.1 N | 359 14.9   10.3 ENE | 59 1653 0.00 1.24 1.33 2.8   0.0 -10.9   0.0 - 12.6   0.0
Jacks Valley 5/9/26 77.7   2.7 47.5   1.1 63   2 15   2 2.6   2.5 ENE | 57 15.6   8.2 NE | 47 1012 0.00 0.51 2.50 13.2   0.3 66.6   1.3 6   1 12.6   0.0
Genoa 5/9/26 81.1   1.8 47.9   3.2 68   1 15   2 1.0   0.6 SW | 227 9.3   6.7 NE | 34 1449 0.00 0.47 5.22 7.0   0.7 66.6   1.4 8   1 12.3   0.0
South Genoa (Walleys Hot Springs) 5/9/26 80.3   2.5 43.3   3.0 90   0 13   0 2.3   2.3 NNW | 334 11.3   17.5 NW | 304 2013 0.00 0.40 3.35 14.0   0.0 68.0   1.8 7   0 12.5   0.0
SW Gardnerville (HWY 88) 5/9/26 77.9   1.7 41.4   4.1 89   3 17   3 3.4   1.8 WNW | 295 10.8   12.3 WNW | 296 1454 0.00 0.03 0.60 3.4   0.0 63.2   1.7 9   0 12.4   0.0
Sheridan 5/9/26 78.4   0.4 45.3   2.7 75   7 17   4 3.4   0.5 NW | 322 10.6   15.6 N | 0 1451 0.00 0.40 3.46 3.6   0.7 69.3   2.0 7   0 12.6   0.0
Ruhenstroth 5/9/26 79.8   1.8 44.8   1.8 71   7 16   4 3.4   0.8 W | 272 15.2   7.5 NW | 308 1416 0.00 0.64 2.06 12.4   0.1 65.0   2.2 8   0 12.6   0.0
Double Spring 5/9/26 75.1   1.3 40.4   1.6 76   3 14   2 3.7   2.1 WSW | 253 15.9   16.1 N | 6 1751 0.00 0.78 2.44 31.2   0.1 61.4   0.1 8   0 12.6   0.0
North Topaz Lake 5/9/26 77.5   1.2 54.4   2.2 50   13 12   2 3.9   2.6 ESE | 122 19.4   8.8 SE | 139 1120 0.00 0.54 1.68 9.6   0.0 69.4   1.0 5   0 12.6   0.0
Wild Oat Mountain 5/9/26 74.8   0.1 53.3   1.8 49   7 12   0 4.1   1.7 NE | 46 15.2   9.2 ENE | 61 1755 0.00 0.52 1.77 16.9   0.1 67.9   1.8 6   0 12.6   0.0
Smith Valley 5/9/26 79.3   1.5 48.0   2.5 60   3 14   4 4.1   0.5 NNW | 333 15.5   6.0 W | 264 2242 0.00 0.51 1.37 5.9   0.0 70.6   3.6 7   1 12.6   0.0
Pine Grove Mountain 5/9/26 65.3   1.5 47.3   0.1 46   10 17   5 5.4   3.3 NNE | 22 18.3   7.1 NNW | 338 1619 0.00 0.55 0.91 20.6   0.7 60.3   0.3 4   1 12.7   0.0
Paradise Hill 5/9/26 79.5   0.8 42.2   0.2 41   6 12   2 4.5   2.3 NE | 35 19.8   7.2 NNE | 18 2350 0.00 0.00 2.33 8.0   0.0 70.9   3.1 5   0 12.6   0.0
Winnemucca 5/9/26 79.0   0.5 49.7   2.1 30   10 8   5 4.9   2.9 NNE | 26 15.2   12.9 N | 6 1226 0.00 0.00 2.90 5.9   0.0 70.7   2.4 1   0 12.6   0.0
NE Elko 5/9/26 75.2   2.5 34.4   0.6 57   14 8   7 4.1   0.8 NW | 307 21.6   3.5 WNW | 282 1457 0.00 0.04 2.33 12.5   0.0 59.2   2.1 3   1 12.6   0.1
North Elko 5/9/26 74.0   1.1 46.5   0.5 40   9 10   5 6.4   1.2 NNW | 335 19.5   6.6 WNW | 286 1503 0.00 0.44 2.48 28.6   0.1 63.4   2.8 4   1 12.6   0.0
South Elko 5/9/26 - 49.6   3.2 99   8 14   4 6.5   0.0 NNE | 15 22.1   3.9 WNW | 299 1608 0.00 0.04 2.71 18.4   0.1 65.3   1.0 3   1 12.6   0.0
Lamoille 1/27/26 42.4   2.7 21.5   6.4 60   0 25   6 2.6   0.5 SE | 125 8.2   4.1 SE | 139 0137 0.00 0.00 0.67 12.3   0.2 26.9   1.3 11   0 8.5   2.8
Reid Gardner Sub 5/9/26 101.3   0.1 55.8   1.5 40   2 9   0 2.8   0.5 WSW | 243 15.6   1.5 SSW | 205 1730 0.00 0.00 0.56 26.3   0.1 88.3   10.0 1   0 12.7   0.0
Corn Creek 5/9/26 95.0   1.1 73.1   1.9 19   1 10   1 7.5   2.6 W | 259 21.7   6.2 WNW | 303 1558 0.00 0.00 0.63 4.0   0.0 88.4   2.3 1   0 12.6   0.0
Lucky Strike 5/9/26 82.7   0.2 65.8   3.4 21   3 10   0 7.3   3.3 NW | 308 24.1   11.2 N | 4 1640 0.00 0.00 1.21 4.6   0.0 79.8   0.5 2   0 12.6   0.0
Lower Angel Peak 5/9/26 77.6   0.9 55.0   1.8 29   0 13   0 5.1   0.6 SW | 222 18.6   10.3 NW | 322 1257 0.00 0.00 1.93 9.8   0.2 70.4   0.8 2   0 12.6   0.0
Angel Peak 5/9/26 67.9   5.9 56.2   0.7 27   2 17   1 3.7   4.8 WNW | 301 18.3   14.8 WNW | 296 1716 0.00 0.02 84.72 3.8   0.5 63.4   4.0 4   0 12.6   0.1
Upper Kyle Canyon 5/9/26 71.1   1.3 54.2   6.0 35   3 17   4 5.1   0.4 E | 81 20.1   2.0 ESE | 118 1206 0.49 0.49 5.08 13.0   0.3 72.8   6.6 6   0 12.7   0.1
Mt Charleston 5/9/26 71.9   0.3 55.5   3.6 32   4 16   4 3.1   0.6 W | 271 15.8   0.7 ESE | 105 1325 0.00 0.00 5.28 18.2   0.0 68.4   1.0 28   0 12.6   0.0
Mid Kyle Canyon 5/9/26 78.1   0.1 57.7   1.3 29   1 14   0 7.4   1.6 WNW | 300 20.7   11.3 ENE | 72 1335 0.02 0.02 2.10 6.9   0.1 76.0   0.3 7   2 12.8   0.0
Blue Diamond 5/9/26 92.9   0.5 69.8   1.2 28   1 10   2 5.8   1.7 NW | 326 33.4   8.9 SE | 134 1346 0.00 0.00 0.85 3.1   0.0 86.9   0.1 2   1 12.6   0.0
Artesian Sub 5/9/26 102.5   0.3 74.8   4.6 22   4 8   0 1.6   0.4 WSW | 249 13.2   2.1 NNW | 345 2344 0.00 0.00 0.35 13.1   0.0 - 0   0 12.7   0.0
North Henderson 5/9/26 102.2   0.3 79.7   6.8 22   3 8   1 4.2   0.8 W | 259 16.6   3.1 W | 281 1412 0.00 0.00 0.52 9.6   0.1 97.4   4.7 3   0 12.6   0.1
Sandy Valley 5/9/26 96.0   0.9 69.4   0.7 28   4 10   1 4.6   0.8 NW | 316 21.5   10.4 WNW | 303 1648 0.00 0.00 0.62 4.6   0.0 86.5   1.9 3   0 12.6   0.0
Searchlight 5/9/26 93.5   0.6 69.9   1.4 28   3 11   2 6.3   0.6 NNE | 22 45.0   15.2 NNE | 27 1441 0.00 0.00 0.51 4.8   0.1 88.4   0.2 1   0 12.6   0.0
Laughlin 5/9/26 106.7   1.0 77.2   3.6 25   3 10   1 4.8   0.6 S | 191 21.7   2.1 SSE | 161 1521 0.00 0.00 0.29 4.2   0.0 93.9   2.2 3   0 12.8   0.0
31Mission Hills 5/9/26 98.0   0.4 75.6   1.4 21   3 8   0 4.1   1.3 ENE | 57 21.9   6.6 ENE | 66 1610 0.00 - 0.00 3.8   0.0 91.4   0.8 5   0 13.2   0.0
32 Enterprise Sierra Cliffs 5/9/26 95.0   0.4 75.2   2.1 18   1 6   0 6.0   1.1 SW | 222 20.5   5.2 W | 278 2227 0.00 - 0.00 2.3   0.0 88.7   0.9 5   1 13.2   0.0
Max   106.7 79.7 99 24 7.7 - 45.0 - - 0.49 - 84.72 44.3 97.4 28 13.2
Avg   - - - - 4.0 - - - - - - - 13.1 65.5 6 -
Min   65.3 34.4 18 6 0.0 - 7.1 - - 0.00 - 0.00 1.8 -17.7 0 12.3